• Join FlightAware (Why Join?)
  • Login
  • US Flag 
10:32PM EST


 

Airport Tracker/Info


-or-


 

Live Flight TrackerFlight Track Log ✈ SWA471 ✈ 24-Apr-2013 ✈ KMHT - KBWI

Flight Track Log - Related Links

Times and Time Zones

All times are in EDT time to prevent confusion due to time zone crossing. See the SWA471 flight status page for this flight to view local times or setup timezone preferences in your user account.

Time Position Orientation Groundspeed Altitude Reporting Facility
EDT Latitude Longitude Course Direction KTS MPH feet Rate Location/Type
03:59PM 42.9167 -71.4167 194° South 164 189 1,000  Level KA90
04:00PM 42.8667 -71.4333 194° South 207 238 3,500 1,980 Climbing KA90
04:01PM 42.8086 -71.4467 190° South 242 278 4,800 2,100 Climbing Boston Center
04:02PM 42.8308 -71.3472 73° East 169 194 7,800 3,000 Climbing Boston Center
04:03PM 42.9031 -71.2753 36° Northeast 230 265 10,900 2,400 Climbing Boston Center
04:04PM 42.9753 -71.2028 36° Northeast 318 366 12,700 2,160 Climbing Boston Center
04:05PM 43.0614 -71.0958 42° Northeast 362 417 15,300 2,340 Climbing Boston Center
04:06PM 43.0536 -70.9653 95° East 379 436 17,400 2,100 Climbing Boston Center
04:07PM 42.9611 -70.9025 154° Southeast 343 395 19,600 2,040 Climbing Boston Center
04:08PM 42.8575 -70.9447 197° South 315 362 21,500 1,800 Climbing Boston Center
04:09PM 42.7539 -70.9981 201° Southwest 358 412 23,300 1,500 Climbing Boston Center
04:10PM 42.6442 -71.0486 199° South 388 447 24,600 1,320 Climbing Boston Center
04:11PM 42.5281 -71.1075 200° South 424 488 26,000 1,500 Climbing Boston Center
04:12PM 42.4206 -71.1772 206° Southwest 440 506 27,600 1,740 Climbing Boston Center
04:13PM 42.3700 -71.3244 245° Southwest 415 478 29,500 1,860 Climbing Boston Center
04:14PM 42.3275 -71.4656 248° West 406 467 31,400 1,200 Climbing Boston Center
04:15PM 42.2661 -71.5983 238° Southwest 417 480 32,000 300 Climbing Boston Center
04:16PM 42.2022 -71.7311 237° Southwest 422 486 32,000  Level Boston Center
04:17PM 42.1383 -71.8633 237° Southwest 427 491 32,000  Level Boston Center
04:18PM 42.0744 -71.9897 236° Southwest 422 486 32,000  Level Boston Center
04:19PM 42.0122 -72.1217 238° Southwest 422 486 32,000 -600 Level Boston Center
04:20PM 41.9500 -72.2475 236° Southwest 422 486 30,800 -1,020 Descending Boston Center
04:21PM 41.8856 -72.3789 237° Southwest 422 486 30,000 -420 Descending Boston Center
04:22PM 41.8231 -72.5069 237° Southwest 422 486 30,000  Level Boston Center
04:23PM 41.7583 -72.6350 236° Southwest 422 486 30,000  Level Boston Center
04:24PM 41.6933 -72.7653 236° Southwest 422 486 30,000  Level Boston Center
04:25PM 41.6283 -72.8956 236° Southwest 422 486 30,000  Level Boston Center
04:26PM 41.5611 -73.0283 236° Southwest 422 486 30,000 -60 Level Boston Center
04:27PM 41.5000 -73.1525 237° Southwest 422 486 29,900  Descending Boston Center
04:28PM 41.4364 -73.2792 236° Southwest 422 486 30,000  Climbing Boston Center
04:29PM 41.3708 -73.4083 236° Southwest 422 486 30,000 -60 Level Boston Center
04:31PM 41.2214 -73.6869 235° Southwest 421 484 29,900 -60 Descending New York Center
04:32PM 41.1497 -73.8078 232° Southwest 426 490 29,900  Level New York Center
04:33PM 41.0756 -73.9308 231° Southwest 432 497 30,000  Climbing New York Center
04:34PM 41.0058 -74.0486 232° Southwest 432 497 30,000  Level New York Center
04:35PM 40.9336 -74.1714 232° Southwest 427 491 30,000  Level New York Center
04:36PM 40.8594 -74.2856 229° Southwest 427 491 30,000 -1,020 Level New York Center
04:37PM 40.7889 -74.4053 232° Southwest 427 491 28,000 -1,020 Descending New York Center
04:38PM 40.7189 -74.5194 231° Southwest 422 486 28,000  Level New York Center
04:39PM 40.6506 -74.6306 231° Southwest 411 473 28,000  Level New York Center
04:40PM 40.5822 -74.7414 231° Southwest 405 466 28,000  Level New York Center
04:41PM 40.5078 -74.8492 228° Southwest 400 460 28,000 -60 Level New York Center
04:42PM 40.4353 -74.9539 228° Southwest 400 460 27,900 -1,260 Descending New York Center
04:43PM 40.3586 -75.0608 227° Southwest 400 460 25,600 -2,520 Descending New York Center
04:44PM 40.2858 -75.1678 228° Southwest 400 460 23,000 -2,460 Descending New York Center
04:45PM 40.2133 -75.2667 226° Southwest 395 455 20,600 -2,460 Descending New York Center
04:46PM 40.1342 -75.3728 226° Southwest 385 443 18,100 -1,380 Descending New York Center
04:47PM 40.0681 -75.4661 227° Southwest 363 418 18,000 -120 Descending New York Center
04:48PM 40.0019 -75.5564 226° Southwest 358 412 17,900 -600 Descending New York Center
04:49PM 39.9356 -75.6467 226° Southwest 358 412 16,800 -960 Descending New York Center
04:50PM 39.8839 -75.7350 233° Southwest 348 400 16,000 -360 Descending New York Center
04:51PM 39.8317 -75.8367 236° Southwest 325 374 16,100  Climbing New York Center
04:52PM 39.7886 -75.9175 235° Southwest 311 358 16,100 -1,440 Level New York Center
04:54PM 39.7000 -76.1000 238° Southwest 305 351 12,200 -1,860 Descending Potomac TRACON
04:55PM 39.6667 -76.1833 243° Southwest 283 326 11,100 -1,320 Descending Potomac TRACON
04:56PM 39.6333 -76.2667 243° Southwest 252 290 9,800 -1,440 Descending Potomac TRACON
04:57PM 39.6167 -76.3500 255° West 240 276 8,300 -1,200 Descending Potomac TRACON
04:58PM 39.5833 -76.4333 243° Southwest 247 284 7,400 -960 Descending Potomac TRACON
04:59PM 39.5667 -76.5000 252° West 239 275 6,500 -1,020 Descending Potomac TRACON
05:00PM 39.5333 -76.5667 237° Southwest 239 275 5,500 -840 Descending Potomac TRACON
05:02PM 39.4667 -76.7167 240° Southwest 235 270 4,000 -540 Descending Potomac TRACON
05:03PM 39.4333 -76.8000 243° Southwest 231 266 4,000  Level Potomac TRACON
05:04PM 39.3833 -76.8333 207° Southwest 215 247 4,000  Level Potomac TRACON
05:05PM 39.3333 -76.8667 207° Southwest 214 246 4,000  Level Potomac TRACON
05:06PM 39.2833 -76.9167 218° Southwest 219 252 4,000  Level Potomac TRACON
05:06PM 39.2333 -76.9000 166° South 214 246 4,000 -300 Level Potomac TRACON
05:07PM 39.1833 -76.8833 166° South 191 220 3,500 -720 Descending Potomac TRACON
05:08PM 39.1833 -76.8167 90° East 196 226 2,700 -1,080 Descending Potomac TRACON
05:09PM 39.1833 -76.7667 90° East 152 175 1,500 -1,140 Descending Potomac TRACON
05:10PM 39.1833 -76.7167 90° East 137 158 500 -1,020 Descending Potomac TRACON
05:12PM 39.1667 -76.6667 270° West  Level FlightAware Approximate
05:19PM 39.1754 -76.6683 270° West  Level Estimated
05:20PM 39.1754 -76.6683 270° West  Level Estimated
05:21PM 39.1754 -76.6683 270° West  Level Estimated
05:22PM 39.1754 -76.6683 270° West  Level Estimated